Time;durP1;ratioP1;P1;durP2;ratioP2;P2;SDS_P1;SDS_P2;PMS_P1;PMS_P2;Temp;Humidity;BMP_temperature;BMP_pressure;BME280_temperature;BME280_humidity;BME280_pressure;Samples;Min_cycle;Max_cycle;Signal;HPM_P1;HPM_P2
2023/12/23 00:01:24;;;;;;;2.80;0.40;;;;;;;;;;4773019;30;20036;-81
2023/12/23 00:11:33;;;;;;;3.58;0.50;;;;;;;;;;4739157;30;20052;-81
2023/12/23 00:14:38;;;;;;;3.65;0.40;;;;;;;;;;4738238;30;20033;-81
2023/12/23 00:24:29;;;;;;;4.50;0.70;;;;;;;;;;4734267;30;20079;-80
2023/12/23 00:27:35;;;;;;;2.58;0.47;;;;;;;;;;4757127;30;20119;-81
2023/12/23 00:30:51;;;;;;;2.28;0.47;;;;;;;;;;4778092;30;20071;-80
2023/12/23 00:33:44;;;;;;;5.00;0.98;;;;;;;;;;4781826;30;20036;-80
2023/12/23 00:36:36;;;;;;;5.63;1.00;;;;;;;;;;4781179;29;20035;-80
2023/12/23 00:39:44;;;;;;;;;;;;;;;;;;;;;
2023/12/23 00:42:19;;;;;;;3.05;0.47;;;;;;;;;;4809452;29;20035;-80
2023/12/23 00:45:01;;;;;;;3.88;0.55;;;;;;;;;;4816371;29;20100;-79
2023/12/23 00:47:31;;;;;;;3.03;0.57;;;;;;;;;;4816525;29;20110;-80
2023/12/23 00:50:20;;;;;;;3.03;0.88;;;;;;;;;;4794083;29;20038;-80
2023/12/23 00:53:09;;;;;;;3.28;0.70;;;;;;;;;;4805924;29;20054;-80
2023/12/23 00:56:02;;;;;;;3.97;1.15;;;;;;;;;;4801422;29;20446;-80
2023/12/23 00:59:01;;;;;;;8.90;1.20;;;;;;;;;;4802887;29;20444;-80
2023/12/23 01:02:05;;;;;;;;;;;;;;;;;;;;;
2023/12/23 01:05:26;;;;;;;2.63;0.70;;;;;;;;;;4817264;29;20039;-80
2023/12/23 01:08:43;;;;;;;;;;;;;;;;;;;;;
2023/12/23 01:11:31;;;;;;;3.75;0.60;;;;;;;;;;4817242;29;19939;-80
2023/12/23 01:14:13;;;;;;;3.70;0.57;;;;;;;;;;4802319;29;20072;-80
2023/12/23 01:17:04;;;;;;;1.83;0.55;;;;;;;;;;4818683;29;20061;-80
2023/12/23 01:19:59;;;;;;;5.28;0.93;;;;;;;;;;4804980;29;20565;-80
2023/12/23 01:22:40;;;;;;;9.80;1.08;;;;;;;;;;4816822;29;20042;-80
2023/12/23 01:25:24;;;;;;;5.72;1.38;;;;;;;;;;4821182;29;20046;-80
2023/12/23 01:28:33;;;;;;;2.97;0.68;;;;;;;;;;4820734;29;20047;-80
2023/12/23 01:31:12;;;;;;;2.83;0.40;;;;;;;;;;4803335;29;20397;-80
2023/12/23 01:33:52;;;;;;;4.07;0.70;;;;;;;;;;4806346;29;20038;-80
2023/12/23 01:36:42;;;;;;;2.83;0.60;;;;;;;;;;4788482;30;20051;-79
2023/12/23 01:39:28;;;;;;;11.38;0.98;;;;;;;;;;4801448;29;20039;-80
2023/12/23 01:42:26;;;;;;;3.65;0.98;;;;;;;;;;4821308;29;20135;-80
2023/12/23 01:45:12;;;;;;;8.60;1.10;;;;;;;;;;4822030;29;20409;-80
2023/12/23 01:47:45;;;;;;;5.22;0.70;;;;;;;;;;4776747;29;20505;-80
2023/12/23 01:50:50;;;;;;;4.63;0.50;;;;;;;;;;4780266;29;20051;-80
2023/12/23 01:54:11;;;;;;;7.38;0.80;;;;;;;;;;4821398;29;20131;-79
2023/12/23 01:57:07;;;;;;;6.65;1.55;;;;;;;;;;4804583;29;20059;-80
2023/12/23 01:59:58;;;;;;;4.88;0.70;;;;;;;;;;4806189;29;20053;-80
2023/12/23 02:03:05;;;;;;;6.38;1.10;;;;;;;;;;4814310;29;20418;-79
2023/12/23 02:05:45;;;;;;;6.47;0.90;;;;;;;;;;4789210;29;20449;-80
2023/12/23 02:09:06;;;;;;;4.47;0.63;;;;;;;;;;4818268;29;20082;-79
2023/12/23 02:12:09;;;;;;;5.10;0.87;;;;;;;;;;4818228;29;20125;-80
2023/12/23 02:15:14;;;;;;;3.67;0.73;;;;;;;;;;4819908;29;20180;-80
2023/12/23 02:18:48;;;;;;;;;;;;;;;;;;;;;
2023/12/23 02:28:52;;;;;;;6.60;1.00;;;;;;;;;;4857622;29;20061;-80
2023/12/23 02:43:11;;;;;;;9.15;0.77;;;;;;;;;;4863653;23;20042;-79
2023/12/23 02:46:37;;;;;;;2.38;0.75;;;;;;;;;;4925370;29;20064;-80
2023/12/23 02:50:06;;;;;;;5.00;0.90;;;;;;;;;;4921724;29;20114;-79
2023/12/23 02:53:03;;;;;;;6.88;0.75;;;;;;;;;;4912568;29;20087;-81
2023/12/23 02:55:41;;;;;;;14.45;1.00;;;;;;;;;;4896092;29;20038;-79
2023/12/23 02:58:57;;;;;;;5.28;1.15;;;;;;;;;;4915576;29;20055;-80
2023/12/23 03:01:41;;;;;;;4.82;0.55;;;;;;;;;;4894249;29;20055;-79
2023/12/23 03:04:32;;;;;;;9.80;1.58;;;;;;;;;;4898963;29;20020;-80
2023/12/23 03:07:11;;;;;;;3.03;0.85;;;;;;;;;;4881313;29;20115;-80
2023/12/23 03:10:10;;;;;;;4.93;0.82;;;;;;;;;;4896754;29;20040;-80
2023/12/23 03:12:48;;;;;;;6.95;0.88;;;;;;;;;;4881833;29;20058;-80
2023/12/23 03:15:36;;;;;;;3.78;0.50;;;;;;;;;;4896260;29;20060;-80
2023/12/23 03:18:23;;;;;;;7.80;1.30;;;;;;;;;;4895284;29;20052;-80
2023/12/23 03:21:38;;;;;;;2.67;0.43;;;;;;;;;;4902151;29;20064;-80
2023/12/23 03:24:11;;;;;;;8.27;0.90;;;;;;;;;;4907480;29;20032;-80
2023/12/23 03:27:11;;;;;;;5.47;1.10;;;;;;;;;;4910711;29;20044;-79
2023/12/23 03:30:20;;;;;;;2.00;0.80;;;;;;;;;;4924761;29;20491;-81
2023/12/23 03:37:18;;;;;;;;;;;;;;;;;;;;;
2023/12/23 03:40:08;;;;;;;3.85;0.75;;;;;;;;;;4917384;29;20055;-80
2023/12/23 03:43:14;;;;;;;5.30;1.25;;;;;;;;;;4926028;29;20092;-80
2023/12/23 03:45:56;;;;;;;6.07;1.63;;;;;;;;;;4894789;29;20092;-80
2023/12/23 03:48:36;;;;;;;8.73;0.98;;;;;;;;;;4890161;29;20395;-80
2023/12/23 03:51:23;;;;;;;2.15;0.68;;;;;;;;;;4876677;29;20402;-80
2023/12/23 03:54:19;;;;;;;5.53;0.80;;;;;;;;;;4891627;29;20036;-80
2023/12/23 03:57:04;;;;;;;8.18;1.25;;;;;;;;;;4904813;29;20040;-80
2023/12/23 03:59:53;;;;;;;6.07;0.95;;;;;;;;;;4906646;29;20060;-79
2023/12/23 04:02:29;;;;;;;4.05;0.80;;;;;;;;;;4895476;29;20039;-80
2023/12/23 04:05:09;;;;;;;5.35;0.80;;;;;;;;;;4895039;29;20131;-80
2023/12/23 04:08:04;;;;;;;5.50;0.70;;;;;;;;;;4914467;29;20036;-80
2023/12/23 04:10:42;;;;;;;9.30;1.02;;;;;;;;;;4912497;29;20055;-81
2023/12/23 04:13:16;;;;;;;3.70;1.00;;;;;;;;;;4879564;29;20405;-78
2023/12/23 04:16:00;;;;;;;8.65;1.30;;;;;;;;;;4926426;29;20043;-80
2023/12/23 04:18:31;;;;;;;4.65;1.30;;;;;;;;;;4895024;29;20036;-81
2023/12/23 04:21:27;;;;;;;10.10;1.50;;;;;;;;;;4909127;29;20035;-79
2023/12/23 04:24:05;;;;;;;6.97;1.13;;;;;;;;;;4881915;29;20032;-79
2023/12/23 04:26:41;;;;;;;3.38;0.63;;;;;;;;;;4896176;29;20052;-80
2023/12/23 04:29:18;;;;;;;11.13;1.00;;;;;;;;;;4881172;29;20063;-80
2023/12/23 04:32:04;;;;;;;12.52;0.95;;;;;;;;;;4911948;29;20048;-80
2023/12/23 04:34:36;;;;;;;;;;;;;;;;;;4899800;29;20043;-80
2023/12/23 04:37:09;;;;;;;2.95;0.55;;;;;;;;;;4883758;29;19915;-80
2023/12/23 04:39:48;;;;;;;5.10;0.80;;;;;;;;;;4883867;29;20047;-80
2023/12/23 04:42:28;;;;;;;3.33;0.70;;;;;;;;;;4881383;29;20091;-80
2023/12/23 04:45:08;;;;;;;6.55;1.10;;;;;;;;;;4898259;29;20036;-80
2023/12/23 04:47:48;;;;;;;6.03;1.73;;;;;;;;;;4894968;29;20092;-80
2023/12/23 04:50:32;;;;;;;5.78;1.20;;;;;;;;;;4879951;29;20036;-80
2023/12/23 04:53:02;;;;;;;5.53;1.05;;;;;;;;;;4915859;29;20040;-80
2023/12/23 04:55:44;;;;;;;10.95;1.15;;;;;;;;;;4916608;29;20043;-80
2023/12/23 04:58:39;;;;;;;6.93;0.93;;;;;;;;;;4902600;29;20092;-80
2023/12/23 05:01:09;;;;;;;8.15;1.50;;;;;;;;;;4885367;29;20036;-81
2023/12/23 05:03:46;;;;;;;5.15;1.08;;;;;;;;;;4882462;29;20048;-79
2023/12/23 05:06:27;;;;;;;3.22;0.77;;;;;;;;;;4902335;29;20025;-80
2023/12/23 05:09:06;;;;;;;5.03;1.08;;;;;;;;;;4905402;29;20055;-79
2023/12/23 05:12:02;;;;;;;5.50;1.30;;;;;;;;;;4919197;29;20123;-79
2023/12/23 05:15:07;;;;;;;6.18;1.00;;;;;;;;;;4890397;29;20068;-79
2023/12/23 05:18:10;;;;;;;9.95;0.80;;;;;;;;;;4915490;29;20060;-80
2023/12/23 05:21:04;;;;;;;5.90;1.25;;;;;;;;;;4911565;29;20020;-80
2023/12/23 05:23:42;;;;;;;6.65;0.70;;;;;;;;;;4911666;29;20040;-79
2023/12/23 05:26:54;;;;;;;5.32;1.20;;;;;;;;;;4925593;29;20040;-80
2023/12/23 05:29:27;;;;;;;8.48;0.88;;;;;;;;;;4890096;29;20047;-79
2023/12/23 05:32:07;;;;;;;3.78;0.68;;;;;;;;;;4931487;29;20100;-80
2023/12/23 05:34:56;;;;;;;5.00;0.82;;;;;;;;;;4916852;29;20096;-80
2023/12/23 05:37:37;;;;;;;3.22;0.63;;;;;;;;;;4915662;29;20036;-80
2023/12/23 05:40:37;;;;;;;5.25;0.90;;;;;;;;;;4915314;29;20028;-80
2023/12/23 05:43:35;;;;;;;10.38;1.10;;;;;;;;;;4913198;29;20075;-80
2023/12/23 05:46:23;;;;;;;6.78;0.90;;;;;;;;;;4917561;29;20236;-80
2023/12/23 05:49:29;;;;;;;5.32;1.08;;;;;;;;;;4928980;29;20036;-80
2023/12/23 05:52:03;;;;;;;5.57;1.00;;;;;;;;;;4883609;29;20051;-80
2023/12/23 05:54:49;;;;;;;5.20;1.10;;;;;;;;;;4911886;29;20128;-80
2023/12/23 05:57:42;;;;;;;;;;;;;;;;;;;;;
2023/12/23 06:00:31;;;;;;;14.13;1.20;;;;;;;;;;4915765;29;20032;-79
2023/12/23 06:03:21;;;;;;;3.45;1.10;;;;;;;;;;4927578;29;20072;-81
2023/12/23 06:06:20;;;;;;;9.75;1.10;;;;;;;;;;4896658;29;20059;-79
2023/12/23 06:09:00;;;;;;;7.13;1.50;;;;;;;;;;4882400;29;20036;-79
2023/12/23 06:11:37;;;;;;;10.55;1.10;;;;;;;;;;4895801;29;20103;-80
2023/12/23 06:14:19;;;;;;;9.80;1.45;;;;;;;;;;4916481;29;20032;-78
2023/12/23 06:17:03;;;;;;;7.47;1.73;;;;;;;;;;4911702;29;20055;-79
2023/12/23 06:20:04;;;;;;;13.25;1.15;;;;;;;;;;4894104;29;20040;-80
2023/12/23 06:22:45;;;;;;;6.43;0.93;;;;;;;;;;4909652;29;20095;-80
2023/12/23 06:25:26;;;;;;;13.00;1.30;;;;;;;;;;4886883;29;20040;-81
2023/12/23 06:28:41;;;;;;;3.45;0.85;;;;;;;;;;4896913;29;20136;-78
2023/12/23 06:31:22;;;;;;;7.78;1.30;;;;;;;;;;4906972;29;20039;-79
2023/12/23 06:33:54;;;;;;;11.48;1.38;;;;;;;;;;4890591;29;20144;-80
2023/12/23 06:36:37;;;;;;;7.90;1.08;;;;;;;;;;4892497;29;20024;-78
2023/12/23 06:40:05;;;;;;;9.27;1.30;;;;;;;;;;4826343;29;20168;-78
2023/12/23 06:55:41;;;;;;;6.13;1.63;;;;;;;;;;4795444;29;20009;-81
2023/12/23 06:59:09;;;;;;;6.45;1.30;;;;;;;;;;4777045;30;20044;-80
2023/12/23 07:01:55;;;;;;;4.55;1.10;;;;;;;;;;4778070;30;20111;-80
2023/12/23 07:04:40;;;;;;;6.50;1.05;;;;;;;;;;4790322;29;20079;-78
2023/12/23 07:07:22;;;;;;;6.30;1.00;;;;;;;;;;4792482;29;20122;-78
2023/12/23 07:10:04;;;;;;;7.65;0.98;;;;;;;;;;4798777;29;20051;-80
2023/12/23 07:12:49;;;;;;;3.40;0.60;;;;;;;;;;4777935;29;20080;-78
2023/12/23 07:15:20;;;;;;;6.20;0.70;;;;;;;;;;4821096;29;20043;-81
2023/12/23 07:18:02;;;;;;;5.25;0.82;;;;;;;;;;4813214;29;20280;-78
2023/12/23 07:20:42;;;;;;;4.78;1.00;;;;;;;;;;4797446;29;20053;-81
2023/12/23 07:23:41;;;;;;;6.40;1.00;;;;;;;;;;4803430;29;20497;-80
2023/12/23 07:26:34;;;;;;;;;;;;;;;;;;;;;
2023/12/23 07:29:44;;;;;;;10.18;1.20;;;;;;;;;;4815826;29;20038;-80
2023/12/23 07:32:34;;;;;;;3.15;0.60;;;;;;;;;;4859550;29;20042;-81
2023/12/23 07:35:33;;;;;;;3.03;1.05;;;;;;;;;;4865975;29;20038;-81
2023/12/23 07:38:42;;;;;;;6.85;0.73;;;;;;;;;;4821121;29;20074;-80
2023/12/23 07:41:28;;;;;;;4.97;0.82;;;;;;;;;;4847260;29;20042;-81
2023/12/23 07:44:11;;;;;;;7.20;0.70;;;;;;;;;;4907453;29;20042;-80
2023/12/23 07:50:36;;;;;;;12.98;1.33;;;;;;;;;;4900474;29;20036;-81
2023/12/23 07:53:14;;;;;;;11.18;1.60;;;;;;;;;;4889917;29;20047;-80
2023/12/23 07:56:06;;;;;;;2.78;0.88;;;;;;;;;;4890796;29;20047;-81
2023/12/23 07:59:01;;;;;;;2.55;0.88;;;;;;;;;;4910339;29;20158;-81
2023/12/23 08:01:52;;;;;;;4.15;0.90;;;;;;;;;;4906791;29;20080;-80
2023/12/23 08:05:13;;;;;;;4.00;0.68;;;;;;;;;;4922114;29;20072;-80
2023/12/23 08:08:29;;;;;;;3.08;0.70;;;;;;;;;;4867832;29;20036;-81
2023/12/23 08:11:26;;;;;;;6.00;0.80;;;;;;;;;;4905445;29;20035;-80
2023/12/23 08:14:16;;;;;;;5.35;1.38;;;;;;;;;;4923409;29;20064;-80
2023/12/23 08:20:01;;;;;;;2.65;0.90;;;;;;;;;;4852960;29;20078;-81
2023/12/23 08:22:46;;;;;;;5.20;1.10;;;;;;;;;;4886202;29;20025;-81
2023/12/23 08:25:47;;;;;;;3.78;0.98;;;;;;;;;;4874053;29;20036;-81
2023/12/23 08:28:48;;;;;;;3.40;1.05;;;;;;;;;;4863306;29;20044;-81
2023/12/23 08:31:31;;;;;;;4.90;1.25;;;;;;;;;;4892148;29;20049;-81
2023/12/23 08:34:49;;;;;;;1.70;0.90;;;;;;;;;;4877435;29;20048;-80
2023/12/23 08:37:23;;;;;;;4.97;1.20;;;;;;;;;;4863835;29;20044;-81
2023/12/23 08:40:45;;;;;;;3.85;1.10;;;;;;;;;;4867700;29;20041;-80
2023/12/23 08:43:21;;;;;;;3.95;1.20;;;;;;;;;;4854192;29;20108;-80
2023/12/23 08:45:58;;;;;;;2.70;1.10;;;;;;;;;;4880254;29;20061;-80
2023/12/23 08:49:11;;;;;;;3.22;1.00;;;;;;;;;;4898009;29;20049;-80
2023/12/23 08:51:42;;;;;;;;;;;;;;;;;;4904116;29;20130;-81
2023/12/23 08:54:20;;;;;;;2.80;0.80;;;;;;;;;;4913742;29;19911;-81
2023/12/23 08:57:12;;;;;;;;;;;;;;;;;;;;;
2023/12/23 08:59:52;;;;;;;1.88;0.73;;;;;;;;;;4914720;29;20036;-81
2023/12/23 09:02:30;;;;;;;2.38;0.73;;;;;;;;;;4883453;29;20070;-80
2023/12/23 09:05:13;;;;;;;1.10;0.60;;;;;;;;;;4899010;29;20044;-81
2023/12/23 09:07:48;;;;;;;3.33;0.55;;;;;;;;;;4914309;29;20100;-81
2023/12/23 09:13:20;;;;;;;14.10;5.60;;;;;;;;;;4912199;29;20123;-80
2023/12/23 09:16:05;;;;;;;1.35;0.60;;;;;;;;;;4913889;29;20051;-80
2023/12/23 09:18:51;;;;;;;0.80;0.40;;;;;;;;;;4896755;29;20035;-81
2023/12/23 09:21:44;;;;;;;3.00;0.73;;;;;;;;;;4915253;29;20075;-79
2023/12/23 09:24:24;;;;;;;1.20;0.63;;;;;;;;;;4911160;29;20032;-80
2023/12/23 09:27:25;;;;;;;1.88;0.57;;;;;;;;;;4916811;29;20056;-81
2023/12/23 09:29:55;;;;;;;2.47;0.65;;;;;;;;;;4897200;29;20040;-81
2023/12/23 09:32:30;;;;;;;1.23;0.32;;;;;;;;;;4898503;29;20039;-81
2023/12/23 09:38:12;;;;;;;2.05;0.75;;;;;;;;;;4908137;29;20099;-81
2023/12/23 09:41:43;;;;;;;4.72;0.68;;;;;;;;;;4915645;29;20124;-81
2023/12/23 09:45:40;;;;;;;2.20;0.50;;;;;;;;;;4928999;29;20052;-82
2023/12/23 09:53:07;;;;;;;2.30;0.90;;;;;;;;;;4916894;29;20027;-81
2023/12/23 09:56:04;;;;;;;2.20;0.77;;;;;;;;;;4927228;29;20032;-80
2023/12/23 09:58:44;;;;;;;1.27;0.60;;;;;;;;;;4896941;29;20044;-79
2023/12/23 10:01:25;;;;;;;;;;;;;;;;;;;;;
2023/12/23 10:04:01;;;;;;;0.73;0.40;;;;;;;;;;4918919;29;20032;-80
2023/12/23 10:06:41;;;;;;;2.40;0.70;;;;;;;;;;4893310;28;20008;-80
2023/12/23 10:09:14;;;;;;;1.30;0.60;;;;;;;;;;4894787;29;20075;-81
2023/12/23 10:11:47;;;;;;;1.20;0.50;;;;;;;;;;4910494;28;20021;-81
2023/12/23 10:14:20;;;;;;;1.38;0.52;;;;;;;;;;4911127;29;20024;-80
2023/12/23 10:16:50;;;;;;;0.98;0.50;;;;;;;;;;4894827;29;20032;-81
2023/12/23 10:19:21;;;;;;;1.25;0.57;;;;;;;;;;4906085;29;20032;-80
2023/12/23 10:21:56;;;;;;;0.98;0.50;;;;;;;;;;4934782;29;20084;-80
2023/12/23 10:24:30;;;;;;;1.67;0.80;;;;;;;;;;4901244;29;20040;-81
2023/12/23 10:27:07;;;;;;;1.98;0.70;;;;;;;;;;4885627;29;20123;-80
2023/12/23 10:29:53;;;;;;;2.35;0.70;;;;;;;;;;4912133;29;20054;-80
2023/12/23 10:35:51;;;;;;;0.88;0.55;;;;;;;;;;4886481;29;20045;-81
2023/12/23 10:45:54;;;;;;;1.77;0.70;;;;;;;;;;4882361;29;20033;-81
2023/12/23 10:48:36;;;;;;;2.05;0.77;;;;;;;;;;4855662;29;20550;-81
2023/12/23 10:52:00;;;;;;;1.92;0.75;;;;;;;;;;4898933;29;20127;-81
2023/12/23 10:54:46;;;;;;;1.15;0.50;;;;;;;;;;4976400;23;20042;-80
2023/12/23 10:58:00;;;;;;;2.08;0.60;;;;;;;;;;4959657;28;20039;-79
2023/12/23 11:00:57;;;;;;;2.05;0.70;;;;;;;;;;4972732;28;20090;-81
2023/12/23 11:04:11;;;;;;;0.90;0.50;;;;;;;;;;4977923;28;20504;-80
2023/12/23 11:10:12;;;;;;;1.40;0.57;;;;;;;;;;5065910;23;20048;-77
2023/12/23 11:12:39;;;;;;;0.95;0.40;;;;;;;;;;4968857;29;20114;-77
2023/12/23 11:15:05;;;;;;;1.70;0.60;;;;;;;;;;4946324;28;20039;-77
2023/12/23 11:17:33;;;;;;;;;;;;;;;;;;4975619;29;20043;-78
2023/12/23 11:20:03;;;;;;;0.77;0.47;;;;;;;;;;4958060;29;19918;-78
2023/12/23 11:22:36;;;;;;;1.75;0.50;;;;;;;;;;4960192;29;20039;-78
2023/12/23 11:25:38;;;;;;;1.63;0.47;;;;;;;;;;4962765;29;20058;-79
2023/12/23 11:28:17;;;;;;;2.58;0.63;;;;;;;;;;4943440;29;20035;-79
2023/12/23 11:30:49;;;;;;;1.05;0.40;;;;;;;;;;4960034;29;20023;-79
2023/12/23 11:33:17;;;;;;;3.63;0.85;;;;;;;;;;4956642;28;20494;-80
2023/12/23 11:36:09;;;;;;;1.77;0.60;;;;;;;;;;4973003;29;20028;-79
2023/12/23 11:38:56;;;;;;;1.60;0.70;;;;;;;;;;4986915;28;20062;-79
2023/12/23 11:41:29;;;;;;;0.60;0.35;;;;;;;;;;4976937;29;20066;-78
2023/12/23 11:43:55;;;;;;;2.10;0.85;;;;;;;;;;4976529;29;20030;-78
2023/12/23 11:46:30;;;;;;;1.63;0.57;;;;;;;;;;4976898;28;20035;-78
2023/12/23 11:48:59;;;;;;;2.15;0.70;;;;;;;;;;4975848;28;20035;-78
2023/12/23 11:51:25;;;;;;;2.13;0.60;;;;;;;;;;4974213;29;20023;-78
2023/12/23 11:53:55;;;;;;;1.13;0.60;;;;;;;;;;4975074;28;20042;-79
2023/12/23 11:56:25;;;;;;;1.83;0.63;;;;;;;;;;4974165;28;20058;-80
2023/12/23 11:58:52;;;;;;;2.72;1.33;;;;;;;;;;4956584;29;20577;-79
2023/12/23 12:01:18;;;;;;;1.35;0.63;;;;;;;;;;4956095;29;20090;-79
2023/12/23 12:03:55;;;;;;;1.13;0.52;;;;;;;;;;4964423;28;20031;-79
2023/12/23 12:06:31;;;;;;;1.25;0.52;;;;;;;;;;4933511;29;20059;-78
2023/12/23 12:08:59;;;;;;;2.15;0.60;;;;;;;;;;4927772;29;20066;-80
2023/12/23 12:11:34;;;;;;;1.40;0.60;;;;;;;;;;4928859;29;20050;-79
2023/12/23 12:14:00;;;;;;;1.38;0.65;;;;;;;;;;4974699;28;20281;-79
2023/12/23 12:16:28;;;;;;;1.65;0.65;;;;;;;;;;4959050;28;20046;-80
2023/12/23 12:18:57;;;;;;;1.08;0.60;;;;;;;;;;4942435;29;20069;-77
2023/12/23 12:25:18;;;;;;;;;;;;;;;;;;6038307;23;20017;-79
2023/12/23 12:27:53;;;;;;;1.07;0.47;;;;;;;;;;4926813;29;19998;-79
2023/12/23 12:30:19;;;;;;;1.65;0.77;;;;;;;;;;4941339;29;20054;-78
2023/12/23 12:32:45;;;;;;;2.35;0.70;;;;;;;;;;4926315;29;20035;-78
2023/12/23 12:35:22;;;;;;;2.33;0.63;;;;;;;;;;4892185;29;20562;-78
2023/12/23 12:37:55;;;;;;;1.67;0.70;;;;;;;;;;4954312;29;20474;-79
2023/12/23 12:40:21;;;;;;;;;;;;;;;;;;4942515;29;20061;-79
2023/12/23 12:42:51;;;;;;;3.65;0.70;;;;;;;;;;4958767;29;19914;-79
2023/12/23 12:45:17;;;;;;;3.53;0.73;;;;;;;;;;4946782;29;20028;-79
2023/12/23 12:47:48;;;;;;;1.95;0.70;;;;;;;;;;4932834;29;20043;-79
2023/12/23 12:50:18;;;;;;;1.15;0.60;;;;;;;;;;4934249;29;20677;-79
2023/12/23 12:52:45;;;;;;;1.50;0.70;;;;;;;;;;4964365;29;20035;-79
2023/12/23 12:55:11;;;;;;;1.67;0.80;;;;;;;;;;4926089;29;20147;-79
2023/12/23 12:57:37;;;;;;;2.38;0.98;;;;;;;;;;4958870;29;20036;-78
2023/12/23 13:00:07;;;;;;;2.03;0.90;;;;;;;;;;4927355;29;20027;-79
2023/12/23 13:02:34;;;;;;;2.00;0.93;;;;;;;;;;4912382;29;20415;-78
2023/12/23 13:04:59;;;;;;;1.52;0.73;;;;;;;;;;4910862;29;20054;-79
2023/12/23 13:07:25;;;;;;;1.65;0.90;;;;;;;;;;4925390;29;20038;-78
2023/12/23 13:10:04;;;;;;;1.73;0.80;;;;;;;;;;4901175;29;20040;-79
2023/12/23 13:12:31;;;;;;;2.47;1.08;;;;;;;;;;4927033;29;20032;-79
2023/12/23 13:15:08;;;;;;;1.23;0.75;;;;;;;;;;4895140;29;20044;-79
2023/12/23 13:17:37;;;;;;;3.10;1.00;;;;;;;;;;4887619;29;20045;-79
2023/12/23 13:20:07;;;;;;;2.33;1.00;;;;;;;;;;4937484;29;20037;-80
2023/12/23 13:22:40;;;;;;;1.67;0.70;;;;;;;;;;4921882;29;20083;-79
2023/12/23 13:25:09;;;;;;;1.33;0.80;;;;;;;;;;4890687;29;20033;-79
2023/12/23 13:27:34;;;;;;;;;;;;;;;;;;4922883;29;20043;-79
2023/12/23 13:30:03;;;;;;;1.63;0.60;;;;;;;;;;4957155;29;19911;-79
2023/12/23 13:32:35;;;;;;;1.13;0.63;;;;;;;;;;4956251;29;20044;-79
2023/12/23 13:35:02;;;;;;;1.48;0.73;;;;;;;;;;4908178;29;20082;-79
2023/12/23 13:37:29;;;;;;;1.45;0.80;;;;;;;;;;4940081;29;20040;-79
2023/12/23 13:39:57;;;;;;;3.17;1.27;;;;;;;;;;4942372;29;20527;-78
2023/12/23 13:42:39;;;;;;;1.48;0.75;;;;;;;;;;4940014;29;20038;-78
2023/12/23 13:45:06;;;;;;;1.77;0.93;;;;;;;;;;4940931;29;20035;-79
2023/12/23 13:47:34;;;;;;;2.42;0.90;;;;;;;;;;4928888;29;20130;-78
2023/12/23 13:50:01;;;;;;;2.28;1.00;;;;;;;;;;4961072;29;20063;-78
2023/12/23 13:52:29;;;;;;;1.75;0.90;;;;;;;;;;4944035;29;20039;-78
2023/12/23 13:54:55;;;;;;;3.95;1.00;;;;;;;;;;4927552;29;20038;-79
2023/12/23 13:57:21;;;;;;;2.95;1.20;;;;;;;;;;4943778;29;20089;-78
2023/12/23 13:59:47;;;;;;;2.35;0.82;;;;;;;;;;4926149;29;20042;-79
2023/12/23 14:02:15;;;;;;;2.10;0.93;;;;;;;;;;4959877;29;20479;-80
2023/12/23 14:04:42;;;;;;;2.13;1.10;;;;;;;;;;4911141;29;20043;-79
2023/12/23 14:07:08;;;;;;;2.08;0.77;;;;;;;;;;4943402;29;20042;-79
2023/12/23 14:09:34;;;;;;;1.67;0.90;;;;;;;;;;4944057;29;20035;-79
2023/12/23 14:12:00;;;;;;;2.70;1.20;;;;;;;;;;4927916;29;20058;-80
2023/12/23 14:14:26;;;;;;;4.15;1.75;;;;;;;;;;4961946;29;20031;-79
2023/12/23 14:16:52;;;;;;;2.55;1.13;;;;;;;;;;4927848;29;20038;-79
2023/12/23 14:19:21;;;;;;;3.38;1.13;;;;;;;;;;4963475;29;20034;-79
2023/12/23 14:21:47;;;;;;;2.80;1.27;;;;;;;;;;4929675;29;20035;-79
2023/12/23 14:24:14;;;;;;;2.10;1.10;;;;;;;;;;4949090;29;20530;-78
2023/12/23 14:26:45;;;;;;;3.67;1.40;;;;;;;;;;4944660;29;20032;-78
2023/12/23 14:29:16;;;;;;;1.25;0.80;;;;;;;;;;4929084;29;20031;-79
2023/12/23 14:31:43;;;;;;;4.95;1.10;;;;;;;;;;4943281;29;20031;-79
2023/12/23 14:34:15;;;;;;;2.10;0.90;;;;;;;;;;4943573;29;20027;-79
2023/12/23 14:36:46;;;;;;;3.30;1.60;;;;;;;;;;4928867;29;20114;-78
2023/12/23 14:39:13;;;;;;;3.38;1.30;;;;;;;;;;4943046;29;20098;-79
2023/12/23 14:41:41;;;;;;;3.22;1.17;;;;;;;;;;4944559;29;20114;-79
2023/12/23 14:44:10;;;;;;;2.15;0.90;;;;;;;;;;4911144;29;20071;-78
2023/12/23 14:46:41;;;;;;;1.85;0.82;;;;;;;;;;4941155;29;20444;-77
2023/12/23 14:49:09;;;;;;;2.20;1.10;;;;;;;;;;4943553;29;20035;-78
2023/12/23 14:51:38;;;;;;;2.10;1.05;;;;;;;;;;4914203;29;20514;-78
2023/12/23 14:54:04;;;;;;;2.58;0.90;;;;;;;;;;4935784;29;20027;-79
2023/12/23 14:56:30;;;;;;;2.80;1.00;;;;;;;;;;4935994;29;20254;-79
2023/12/23 14:58:57;;;;;;;3.67;1.08;;;;;;;;;;4968038;29;20488;-79
2023/12/23 15:01:23;;;;;;;3.90;1.40;;;;;;;;;;4967736;29;20122;-80
2023/12/23 15:03:51;;;;;;;2.92;1.10;;;;;;;;;;4937186;29;20059;-79
2023/12/23 15:06:17;;;;;;;4.07;0.90;;;;;;;;;;4939352;29;20039;-79
2023/12/23 15:08:43;;;;;;;3.15;1.08;;;;;;;;;;4953361;29;20031;-80
2023/12/23 15:14:10;;;;;;;2.22;1.00;;;;;;;;;;4951664;29;20035;-79
2023/12/23 15:16:39;;;;;;;2.03;0.90;;;;;;;;;;4935315;29;20377;-78
2023/12/23 15:19:04;;;;;;;;;;;;;;;;;;4916787;29;20152;-79
2023/12/23 15:21:30;;;;;;;7.13;1.30;;;;;;;;;;4932063;29;19914;-79
2023/12/23 15:23:56;;;;;;;2.25;1.00;;;;;;;;;;4948353;29;20023;-79
2023/12/23 15:26:23;;;;;;;3.45;1.23;;;;;;;;;;4964773;29;20066;-79
2023/12/23 15:28:48;;;;;;;1.55;0.82;;;;;;;;;;4963515;29;20040;-79
2023/12/23 15:31:15;;;;;;;2.50;1.25;;;;;;;;;;4914988;29;20059;-79
2023/12/23 15:33:43;;;;;;;2.97;1.15;;;;;;;;;;4897899;29;20036;-80
2023/12/23 15:36:13;;;;;;;3.43;1.47;;;;;;;;;;4936662;29;20097;-80
2023/12/23 15:38:40;;;;;;;3.25;1.33;;;;;;;;;;4919121;29;20039;-79
2023/12/23 15:41:10;;;;;;;3.67;1.60;;;;;;;;;;4935457;29;20042;-79
2023/12/23 15:43:35;;;;;;;1.80;1.08;;;;;;;;;;4949669;29;20031;-79
2023/12/23 15:46:04;;;;;;;3.35;1.20;;;;;;;;;;4945037;29;20063;-79
2023/12/23 15:48:36;;;;;;;2.40;1.33;;;;;;;;;;4945477;29;20032;-80
2023/12/23 15:51:06;;;;;;;2.70;1.17;;;;;;;;;;4944944;29;20028;-78
2023/12/23 15:53:33;;;;;;;3.28;1.30;;;;;;;;;;4927779;29;20500;-79
2023/12/23 15:56:01;;;;;;;3.15;1.38;;;;;;;;;;4928458;29;20046;-79
2023/12/23 15:58:29;;;;;;;5.38;1.40;;;;;;;;;;4944531;29;20039;-78
2023/12/23 16:00:55;;;;;;;2.50;1.10;;;;;;;;;;4926632;29;20394;-79
2023/12/23 16:03:21;;;;;;;2.65;1.20;;;;;;;;;;4926326;29;20118;-79
2023/12/23 16:05:47;;;;;;;4.60;1.60;;;;;;;;;;4943238;29;20038;-79
2023/12/23 16:08:13;;;;;;;2.78;1.10;;;;;;;;;;4905619;29;20520;-78
2023/12/23 16:10:40;;;;;;;3.45;1.50;;;;;;;;;;4915161;29;20040;-80
2023/12/23 16:13:06;;;;;;;1.80;1.10;;;;;;;;;;4949209;29;20043;-79
2023/12/23 16:15:32;;;;;;;3.00;1.10;;;;;;;;;;4933418;29;20115;-79
2023/12/23 16:17:58;;;;;;;2.45;1.10;;;;;;;;;;4914481;29;20035;-79
2023/12/23 16:20:24;;;;;;;3.67;1.02;;;;;;;;;;4900122;29;20123;-78
2023/12/23 16:22:51;;;;;;;2.40;1.20;;;;;;;;;;4912903;29;20550;-80
2023/12/23 16:38:50;;;;;;;3.70;1.20;;;;;;;;;;5644256;23;20058;-78
2023/12/23 16:41:18;;;;;;;2.45;1.08;;;;;;;;;;4952884;28;20039;-80
2023/12/23 16:43:51;;;;;;;4.25;1.73;;;;;;;;;;4965022;29;20039;-79
2023/12/23 16:46:33;;;;;;;5.03;2.35;;;;;;;;;;4936091;29;20538;-79
2023/12/23 16:49:03;;;;;;;2.60;1.40;;;;;;;;;;4943164;29;20015;-79
2023/12/23 16:51:29;;;;;;;4.00;1.52;;;;;;;;;;4969497;29;20035;-79
2023/12/23 16:53:54;;;;;;;1.77;0.90;;;;;;;;;;4928449;29;20045;-80
2023/12/23 16:56:20;;;;;;;2.60;1.27;;;;;;;;;;4941698;29;20106;-79
2023/12/23 16:58:46;;;;;;;3.72;1.40;;;;;;;;;;4943679;29;20031;-78
2023/12/23 17:01:13;;;;;;;2.03;0.82;;;;;;;;;;4938041;29;20028;-78
2023/12/23 17:03:39;;;;;;;2.20;0.98;;;;;;;;;;4930904;29;20079;-79
2023/12/23 17:06:06;;;;;;;1.73;1.00;;;;;;;;;;4929890;29;20027;-79
2023/12/23 17:08:34;;;;;;;1.33;0.77;;;;;;;;;;4947576;29;20055;-78
2023/12/23 17:11:05;;;;;;;1.75;0.75;;;;;;;;;;4965225;29;20456;-78
2023/12/23 17:13:31;;;;;;;1.92;0.85;;;;;;;;;;4931095;29;20035;-79
2023/12/23 17:15:59;;;;;;;1.83;0.95;;;;;;;;;;4917678;29;20031;-79
2023/12/23 17:18:28;;;;;;;1.92;0.90;;;;;;;;;;4949743;29;20034;-79
2023/12/23 17:20:54;;;;;;;2.05;1.10;;;;;;;;;;4935472;29;20039;-79
2023/12/23 17:23:24;;;;;;;2.53;1.20;;;;;;;;;;4939246;29;20051;-78
2023/12/23 17:25:53;;;;;;;4.03;1.50;;;;;;;;;;4971626;29;20027;-78
2023/12/23 17:28:19;;;;;;;4.35;1.33;;;;;;;;;;4936996;29;20098;-79
2023/12/23 17:30:45;;;;;;;4.75;1.40;;;;;;;;;;4954957;29;20035;-77
2023/12/23 17:33:12;;;;;;;3.78;1.33;;;;;;;;;;4927338;29;20031;-77
2023/12/23 17:35:53;;;;;;;2.97;1.25;;;;;;;;;;5124319;27;20879;-78
2023/12/23 17:38:19;;;;;;;6.72;1.30;;;;;;;;;;5104452;28;20040;-78
2023/12/23 17:40:49;;;;;;;6.18;1.90;;;;;;;;;;5103575;28;20050;-78
2023/12/23 17:43:15;;;;;;;4.53;1.48;;;;;;;;;;5089165;28;20096;-78
2023/12/23 17:45:41;;;;;;;4.30;2.22;;;;;;;;;;5105383;28;20028;-78
2023/12/23 17:48:07;;;;;;;5.75;2.33;;;;;;;;;;5061759;28;20039;-78
2023/12/23 17:50:33;;;;;;;4.45;1.92;;;;;;;;;;5087806;28;20029;-78
2023/12/23 17:52:58;;;;;;;5.95;1.70;;;;;;;;;;5088096;28;20020;-78
2023/12/23 17:55:30;;;;;;;5.70;3.03;;;;;;;;;;5071012;28;20544;-78
2023/12/23 17:57:57;;;;;;;7.05;3.05;;;;;;;;;;5086429;28;20028;-77